Lakeside, California
Current Conditions -  °F | °C
As of 11:55 AM on Sunday 23 Nov 2014 (Local Time) from KSEE Reporting Station
Clear Clear  
Wind Chill: 73°   Ceiling: Unl
Heat Index: 73°   Visibility: 10mi
Dew Point: 45°   Wind: 0mph
Humidity: 36%   Direction: NA
Pressure: 30.08"   Gusts: NA
Location:  32.85°N, 116.9°W
Report Text: KSEE 231955Z AUTO 00000KT 10SM CLR 23/07 A3008 RMK AO2
Loading
Personal Weather Stations






























Interactive Weather Map New forecast layout! Learn more

10-Day Weather Forecast

Advertisements
Track Severe Weather on mobile